Kezdőlap
METAR-TAF:

METAR-TAF

Repülőterek :

Safford, Arizona, Amerikai Egyesült Államok

földrajzi szélesség: 32-51-26N, földrajzi hosszúság: 109-38-08W, magasság: 968 m

Jelenlegi meteorológiai megfigyelések

A jelentés 31 perccel ezelõtt készült, 06:51 UTC
Kelet-délkeleti szél 11 kt
Hőmérséklet 26°C
Páratartalom 65%
Légköri nyomás 1017 hPa
Látótávolság: 16.1 km
Szórványos felhőzet 12000 lábon
enyhe esõ

METAR: KSAD 220651Z AUTO 12011KT 10SM -RA SCT120 26/19 A3003 RMK AO2 RAB0558E13B51 SLP109 P0000 T02560194 403720256

Idő: 00:22 (07:22 UTC)


TAF: hiányzik

Meteorológiai megfigyelések és előrejelzések több, mint 4000 repülőtéren (METAR és TAF jelentéseket).

A térképen piros és sárga pontok jelzik az elérhető meteorológiai állomásokat.

Mozgassa az egeret a pont fölött, hogy megjelenjen az állomás neve.

Azután kattintson az időjárási megfigyelések és előrejelzések megtekintéséhez.

A térkép megváltoztatása: kattintson a fekete keresztel jelölt zöld gombra ráközelítéshez, a vonallal jelölt zöld gombra távolításhoz, vagy a zöld nyilakra a szomszédos térképek eléréséhez.


METAR-TAF: